createdAt,value
2023-04-17T00:01:25.860Z,8.80
2023-04-17T00:03:53.083Z,8.80
2023-04-17T00:06:21.677Z,8.70
2023-04-17T00:08:48.235Z,8.80
2023-04-17T00:11:17.342Z,8.70
2023-04-17T00:13:45.374Z,8.70
2023-04-17T00:16:13.529Z,8.70
2023-04-17T00:18:40.640Z,8.70
2023-04-17T00:21:07.380Z,8.70
2023-04-17T00:23:34.014Z,8.80
2023-04-17T00:26:01.009Z,8.80
2023-04-17T00:28:27.642Z,8.80
2023-04-17T00:30:54.338Z,8.90
2023-04-17T00:33:20.946Z,8.80
2023-04-17T00:35:47.808Z,8.90
2023-04-17T00:38:14.454Z,8.90
2023-04-17T00:40:42.002Z,8.90
2023-04-17T00:43:08.621Z,8.90
2023-04-17T00:45:35.746Z,8.90
2023-04-17T00:48:04.960Z,8.90
2023-04-17T00:50:32.079Z,8.90
2023-04-17T00:52:59.558Z,8.80
2023-04-17T00:55:27.585Z,8.80
2023-04-17T00:57:55.549Z,8.80
2023-04-17T01:00:22.348Z,8.80
2023-04-17T01:02:49.219Z,8.80
2023-04-17T01:05:16.146Z,8.70
2023-04-17T01:07:43.098Z,8.70
2023-04-17T01:10:10.380Z,8.70
2023-04-17T01:12:37.132Z,8.70
2023-04-17T01:15:04.863Z,8.70
2023-04-17T01:17:31.576Z,8.70
2023-04-17T01:19:58.344Z,8.70
2023-04-17T01:22:25.022Z,8.70
2023-04-17T01:24:51.610Z,8.70
2023-04-17T01:27:18.203Z,8.70
2023-04-17T01:29:45.391Z,8.70
2023-04-17T01:32:12.095Z,8.80
2023-04-17T01:34:38.720Z,8.80
2023-04-17T01:37:05.333Z,8.80
2023-04-17T01:39:32.057Z,8.70
2023-04-17T01:41:58.816Z,8.60
2023-04-17T01:44:25.495Z,8.70
2023-04-17T01:46:52.310Z,8.60
2023-04-17T01:49:19.905Z,8.60
2023-04-17T01:51:46.604Z,8.60
2023-04-17T01:54:15.307Z,8.60
2023-04-17T01:56:42.420Z,8.60
2023-04-17T01:59:10.214Z,8.50
2023-04-17T02:01:37.415Z,8.60
2023-04-17T02:04:04.492Z,8.60
2023-04-17T02:06:32.449Z,8.60
2023-04-17T02:08:59.566Z,8.50
2023-04-17T02:11:26.344Z,8.50
2023-04-17T02:13:53.380Z,8.50
2023-04-17T02:16:24.239Z,8.40
2023-04-17T02:18:51.704Z,8.40
2023-04-17T02:21:18.330Z,8.50
2023-04-17T02:23:45.176Z,8.50
2023-04-17T02:26:12.324Z,8.50
2023-04-17T02:28:39.275Z,8.50
2023-04-17T02:31:08.413Z,8.50
2023-04-17T02:33:39.275Z,8.50
2023-04-17T02:36:06.804Z,8.40
2023-04-17T02:38:33.654Z,8.50
2023-04-17T02:41:00.238Z,8.50
2023-04-17T02:43:26.866Z,8.40
2023-04-17T02:45:53.493Z,8.40
2023-04-17T02:48:20.269Z,8.40
2023-04-17T02:50:46.956Z,8.40
2023-04-17T02:53:13.629Z,8.40
2023-04-17T02:55:40.264Z,8.40
2023-04-17T02:58:06.851Z,8.40
2023-04-17T03:00:33.555Z,8.50
2023-04-17T03:03:01.000Z,8.50
2023-04-17T03:05:30.172Z,8.50
2023-04-17T03:07:58.875Z,8.50
2023-04-17T03:10:25.627Z,8.50
2023-04-17T03:12:52.690Z,8.50
2023-04-17T03:15:19.444Z,8.50
2023-04-17T03:17:46.158Z,8.50
2023-04-17T03:20:12.913Z,8.60
2023-04-17T03:22:39.544Z,8.60
2023-04-17T03:25:06.668Z,8.60
2023-04-17T03:27:33.585Z,8.70
2023-04-17T03:30:00.251Z,8.70
2023-04-17T03:32:26.952Z,8.60
2023-04-17T03:34:53.554Z,8.60
2023-04-17T03:37:20.145Z,8.60
2023-04-17T03:39:46.729Z,8.60
2023-04-17T03:42:14.563Z,8.60
2023-04-17T03:44:42.437Z,8.60
2023-04-17T03:47:10.387Z,8.50
2023-04-17T03:49:37.068Z,8.50
2023-04-17T03:52:04.049Z,8.60
2023-04-17T03:54:35.185Z,8.60
2023-04-17T03:57:03.074Z,8.60
2023-04-17T03:59:31.519Z,8.50
2023-04-17T04:01:58.554Z,8.60
2023-04-17T04:04:25.680Z,8.50
2023-04-17T04:06:54.385Z,8.50
2023-04-17T04:09:21.426Z,8.40
2023-04-17T04:11:48.186Z,8.40
2023-04-17T04:14:14.854Z,8.30
2023-04-17T04:16:42.164Z,8.30
2023-04-17T04:19:09.207Z,8.40
2023-04-17T04:21:36.163Z,8.30
2023-04-17T04:24:03.154Z,8.30
2023-04-17T04:26:29.764Z,8.30
2023-04-17T04:28:56.836Z,8.30
2023-04-17T04:31:27.683Z,8.30
2023-04-17T04:33:55.381Z,8.20
2023-04-17T04:36:22.927Z,8.20
2023-04-17T04:38:50.365Z,8.20
2023-04-17T04:41:17.647Z,8.20
2023-04-17T04:43:44.606Z,8.20
2023-04-17T04:46:11.566Z,8.30
2023-04-17T04:48:39.387Z,8.20
2023-04-17T04:51:08.026Z,8.30
2023-04-17T04:53:34.752Z,8.30
2023-04-17T04:56:01.345Z,8.40
2023-04-17T04:58:29.550Z,8.30
2023-04-17T05:00:56.302Z,8.40
2023-04-17T05:03:23.517Z,8.30
2023-04-17T05:05:50.478Z,8.30
2023-04-17T05:08:17.252Z,8.30
2023-04-17T05:10:45.940Z,8.20
2023-04-17T05:13:12.771Z,8.20
2023-04-17T05:15:41.276Z,8.20
2023-04-17T05:18:08.067Z,8.30
2023-04-17T05:20:34.866Z,8.30
2023-04-17T05:23:01.622Z,8.30
2023-04-17T05:25:28.387Z,8.30
2023-04-17T05:27:55.056Z,8.30
2023-04-17T05:30:21.637Z,8.30
2023-04-17T05:32:48.534Z,8.30
2023-04-17T05:35:15.432Z,8.30
2023-04-17T05:37:42.094Z,8.30
2023-04-17T05:40:09.323Z,8.30
2023-04-17T05:42:36.571Z,8.30
2023-04-17T05:45:03.647Z,8.30
2023-04-17T05:47:30.519Z,8.30
2023-04-17T05:49:58.426Z,8.40
2023-04-17T05:52:25.666Z,8.40
2023-04-17T05:54:52.313Z,8.40
2023-04-17T05:57:19.830Z,8.40
2023-04-17T05:59:48.944Z,8.40
2023-04-17T06:02:16.733Z,8.40
2023-04-17T06:04:44.501Z,8.50
2023-04-17T06:07:11.720Z,8.50
2023-04-17T06:09:39.401Z,8.50
2023-04-17T06:12:06.428Z,8.50
2023-04-17T06:14:33.103Z,8.50
2023-04-17T06:16:59.836Z,8.50
2023-04-17T06:19:26.465Z,8.50
2023-04-17T06:21:53.222Z,8.50
2023-04-17T06:24:19.797Z,8.50
2023-04-17T06:26:46.417Z,8.60
2023-04-17T06:29:13.875Z,8.50
2023-04-17T06:31:40.760Z,8.50
2023-04-17T06:34:07.404Z,8.50
2023-04-17T06:36:34.204Z,8.50
2023-04-17T06:39:00.805Z,8.50
2023-04-17T06:41:27.557Z,8.50
2023-04-17T06:43:54.175Z,8.50
2023-04-17T06:46:22.835Z,8.60
2023-04-17T06:48:52.130Z,8.60
2023-04-17T06:51:20.976Z,8.60
2023-04-17T06:53:48.212Z,8.70
2023-04-17T06:56:14.883Z,8.70
2023-04-17T06:58:44.318Z,8.60
2023-04-17T07:01:12.055Z,8.60
2023-04-17T07:03:39.669Z,8.70
2023-04-17T07:06:06.674Z,8.70
2023-04-17T07:08:33.422Z,8.70
2023-04-17T07:11:01.044Z,8.80
2023-04-17T07:13:31.228Z,8.90
2023-04-17T07:15:59.190Z,8.90
2023-04-17T07:18:26.815Z,8.90
2023-04-17T07:20:53.453Z,9.00
2023-04-17T07:23:20.077Z,9.10
2023-04-17T07:25:46.738Z,9.20
2023-04-17T07:28:14.268Z,9.20
2023-04-17T07:30:43.720Z,9.30
2023-04-17T07:33:10.581Z,9.20
2023-04-17T07:35:37.691Z,9.30
2023-04-17T07:38:04.375Z,9.20
2023-04-17T07:40:32.099Z,9.30
2023-04-17T07:42:58.804Z,9.40
2023-04-17T07:45:29.332Z,9.40
2023-04-17T07:47:56.001Z,9.40
2023-04-17T07:50:22.691Z,9.50
2023-04-17T07:52:49.346Z,9.60
2023-04-17T07:55:16.702Z,9.60
2023-04-17T07:57:46.452Z,9.60
2023-04-17T08:00:14.488Z,9.70
2023-04-17T08:02:42.006Z,9.70
2023-04-17T08:05:09.709Z,9.80
2023-04-17T08:07:37.362Z,9.70
2023-04-17T08:10:04.901Z,9.80
2023-04-17T08:12:31.590Z,10.00
2023-04-17T08:14:58.221Z,10.00
2023-04-17T08:17:26.109Z,10.00
2023-04-17T08:19:57.624Z,10.00
2023-04-17T08:22:25.981Z,9.80
2023-04-17T08:24:58.005Z,9.80
2023-04-17T08:27:28.154Z,9.80
2023-04-17T08:29:54.748Z,9.70
2023-04-17T08:32:21.753Z,9.50
2023-04-17T08:34:48.385Z,9.40
2023-04-17T08:37:15.099Z,9.40
2023-04-17T08:39:41.725Z,9.50
2023-04-17T08:42:18.202Z,9.50
2023-04-17T08:44:45.711Z,9.40
2023-04-17T08:47:12.914Z,9.50
2023-04-17T08:49:43.251Z,9.60
2023-04-17T08:52:09.901Z,9.70
2023-04-17T08:54:38.340Z,9.80
2023-04-17T08:57:05.821Z,9.80
2023-04-17T08:59:32.827Z,9.80
2023-04-17T09:02:07.019Z,9.90
2023-04-17T09:04:41.981Z,10.00
2023-04-17T09:07:11.986Z,10.20
2023-04-17T09:09:52.688Z,10.30
2023-04-17T09:12:21.441Z,10.30
2023-04-17T09:14:48.164Z,10.40
2023-04-17T09:17:19.458Z,10.40
2023-04-17T09:20:11.780Z,10.50
2023-04-17T09:22:40.356Z,10.60
2023-04-17T09:25:20.791Z,10.50
2023-04-17T09:27:47.478Z,10.50
2023-04-17T09:30:14.498Z,10.50
2023-04-17T09:32:41.435Z,10.40
2023-04-17T09:35:08.745Z,10.30
2023-04-17T09:37:52.799Z,10.30
2023-04-17T09:40:20.907Z,10.40
2023-04-17T09:43:06.100Z,10.50
2023-04-17T09:45:40.111Z,10.60
2023-04-17T09:48:09.177Z,10.50
2023-04-17T09:50:38.604Z,10.50
2023-04-17T09:53:07.099Z,10.40
2023-04-17T09:55:36.402Z,10.40
2023-04-17T09:58:04.729Z,10.40
2023-04-17T10:00:31.562Z,10.50
2023-04-17T10:02:59.193Z,10.50
2023-04-17T10:05:32.166Z,10.40
2023-04-17T10:07:58.971Z,10.50
2023-04-17T10:10:32.294Z,10.50
2023-04-17T10:13:11.170Z,10.50
2023-04-17T10:15:38.867Z,10.60
2023-04-17T10:18:25.145Z,10.60
2023-04-17T10:20:55.445Z,10.50
2023-04-17T10:23:35.705Z,10.40
2023-04-17T10:26:27.865Z,10.40
2023-04-17T10:28:55.847Z,10.40
2023-04-17T10:31:23.514Z,10.40
2023-04-17T10:33:52.570Z,10.30
2023-04-17T10:36:45.351Z,10.30
2023-04-17T10:39:13.674Z,10.30
2023-04-17T10:42:06.222Z,10.30
2023-04-17T10:44:39.449Z,10.30
2023-04-17T10:47:15.859Z,10.30
2023-04-17T10:49:51.389Z,10.30
2023-04-17T10:52:33.250Z,10.30
2023-04-17T10:55:17.440Z,10.20
2023-04-17T10:57:53.269Z,10.30
2023-04-17T11:00:27.173Z,10.20
2023-04-17T11:02:54.453Z,10.30
2023-04-17T11:05:22.729Z,10.30
2023-04-17T11:07:51.467Z,10.30
2023-04-17T11:10:23.162Z,10.20
2023-04-17T11:12:58.371Z,10.20
2023-04-17T11:15:34.091Z,10.30
2023-04-17T11:18:02.612Z,10.30
2023-04-17T11:20:33.602Z,10.40
2023-04-17T11:23:04.928Z,10.60
2023-04-17T11:25:33.652Z,10.70
2023-04-17T11:28:06.391Z,10.70
2023-04-17T11:30:34.894Z,10.80
2023-04-17T11:33:03.633Z,10.90
2023-04-17T11:35:38.929Z,11.00
2023-04-17T11:38:28.685Z,11.00
2023-04-17T11:40:59.206Z,11.10
2023-04-17T11:43:27.373Z,11.10
2023-04-17T11:45:56.462Z,11.00
2023-04-17T11:48:28.167Z,11.10
2023-04-17T11:51:01.237Z,11.00
2023-04-17T11:53:28.005Z,11.10
2023-04-17T11:56:17.847Z,11.10
2023-04-17T11:58:53.061Z,11.00
2023-04-17T12:01:24.542Z,11.10
2023-04-17T12:03:52.299Z,11.10
2023-04-17T12:06:19.538Z,11.40
2023-04-17T12:08:50.260Z,11.50
2023-04-17T12:11:25.800Z,11.60
2023-04-17T12:13:55.627Z,11.60
2023-04-17T12:16:27.062Z,11.40
2023-04-17T12:18:54.210Z,11.30
2023-04-17T12:21:21.262Z,11.30
2023-04-17T12:23:47.976Z,11.30
2023-04-17T12:26:14.738Z,11.40
2023-04-17T12:28:41.621Z,11.50
2023-04-17T12:31:08.402Z,11.80
2023-04-17T12:33:35.282Z,11.80
2023-04-17T12:36:03.585Z,11.90
2023-04-17T12:38:31.405Z,12.10
2023-04-17T12:40:58.244Z,12.30
2023-04-17T12:43:24.860Z,12.40
2023-04-17T12:45:53.036Z,12.50
2023-04-17T12:48:19.796Z,12.50
2023-04-17T12:50:46.484Z,12.30
2023-04-17T12:53:14.580Z,12.20
2023-04-17T12:55:43.743Z,12.20
2023-04-17T12:58:11.917Z,12.20
2023-04-17T13:00:40.089Z,12.00
2023-04-17T13:03:07.058Z,12.00
2023-04-17T13:05:33.844Z,12.10
2023-04-17T13:08:00.523Z,12.20
2023-04-17T13:10:27.847Z,12.30
2023-04-17T13:12:54.558Z,12.40
2023-04-17T13:15:21.751Z,12.60
2023-04-17T13:17:48.503Z,12.70
2023-04-17T13:20:15.213Z,12.90
2023-04-17T13:22:41.844Z,13.00
2023-04-17T13:25:09.015Z,13.00
2023-04-17T13:27:36.335Z,13.00
2023-04-17T13:30:03.376Z,12.80
2023-04-17T13:32:30.176Z,12.60
2023-04-17T13:34:58.694Z,12.80
2023-04-17T13:37:25.905Z,13.00
2023-04-17T13:39:52.963Z,13.10
2023-04-17T13:42:20.282Z,13.00
2023-04-17T13:44:46.948Z,12.80
2023-04-17T13:47:13.904Z,12.70
2023-04-17T13:49:40.594Z,12.60
2023-04-17T13:52:07.633Z,12.50
2023-04-17T13:54:34.454Z,12.50
2023-04-17T13:57:01.355Z,12.60
2023-04-17T13:59:28.255Z,12.70
2023-04-17T14:01:55.181Z,12.80
2023-04-17T14:04:22.726Z,13.10
2023-04-17T14:06:51.275Z,12.90
2023-04-17T14:09:18.127Z,12.80
2023-04-17T14:11:44.834Z,12.80
2023-04-17T14:14:12.737Z,12.80
2023-04-17T14:16:41.193Z,12.70
2023-04-17T14:19:13.754Z,12.70
2023-04-17T14:21:41.509Z,12.60
2023-04-17T14:24:08.384Z,12.70
2023-04-17T14:26:35.739Z,12.80
2023-04-17T14:29:02.760Z,12.80
2023-04-17T14:31:29.442Z,12.90
2023-04-17T14:33:56.280Z,12.90
2023-04-17T14:36:23.054Z,12.90
2023-04-17T14:38:51.218Z,12.80
2023-04-17T14:41:18.373Z,12.90
2023-04-17T14:43:45.146Z,12.80
2023-04-17T14:46:12.241Z,12.80
2023-04-17T14:48:54.025Z,12.70
2023-04-17T14:51:23.415Z,13.00
2023-04-17T14:53:51.282Z,13.10
2023-04-17T14:56:18.135Z,13.30
2023-04-17T14:58:44.865Z,13.30
2023-04-17T15:01:11.573Z,13.20
2023-04-17T15:03:38.468Z,13.30
2023-04-17T15:06:05.351Z,13.40
2023-04-17T15:08:32.105Z,13.50
2023-04-17T15:10:58.941Z,13.40
2023-04-17T15:13:25.760Z,13.20
2023-04-17T15:15:52.504Z,13.10
2023-04-17T15:18:19.131Z,13.20
2023-04-17T15:20:46.319Z,13.30
2023-04-17T15:23:13.109Z,13.30
2023-04-17T15:25:40.137Z,13.30
2023-04-17T15:28:07.001Z,13.30
2023-04-17T15:30:33.759Z,13.30
2023-04-17T15:33:00.631Z,13.40
2023-04-17T15:35:27.371Z,13.50
2023-04-17T15:37:54.026Z,13.40
2023-04-17T15:40:20.933Z,13.50
2023-04-17T15:42:49.423Z,13.60
2023-04-17T15:45:16.189Z,13.70
2023-04-17T15:47:42.793Z,13.70
2023-04-17T15:50:10.008Z,13.70
2023-04-17T15:52:36.621Z,13.80
2023-04-17T15:55:03.321Z,13.80
2023-04-17T15:57:30.010Z,13.80
2023-04-17T15:59:56.608Z,13.90
2023-04-17T16:02:23.376Z,13.90
2023-04-17T16:04:50.166Z,13.90
2023-04-17T16:07:17.030Z,14.00
2023-04-17T16:09:44.646Z,14.00
2023-04-17T16:12:11.398Z,13.90
2023-04-17T16:14:38.361Z,13.70
2023-04-17T16:17:05.031Z,13.60
2023-04-17T16:19:32.252Z,13.60
2023-04-17T16:21:59.428Z,13.60
2023-04-17T16:24:26.352Z,13.60
2023-04-17T16:26:58.217Z,13.60
2023-04-17T16:29:25.881Z,13.70
2023-04-17T16:31:53.714Z,13.70
2023-04-17T16:34:20.796Z,13.80
2023-04-17T16:36:48.184Z,13.90
2023-04-17T16:39:14.960Z,13.80
2023-04-17T16:41:41.904Z,13.70
2023-04-17T16:44:08.510Z,13.80
2023-04-17T16:46:45.723Z,13.80
2023-04-17T16:49:22.229Z,13.80
2023-04-17T16:51:48.896Z,13.80
2023-04-17T16:54:15.640Z,13.70
2023-04-17T16:56:42.757Z,13.70
2023-04-17T16:59:09.415Z,13.50
2023-04-17T17:01:36.187Z,13.50
2023-04-17T17:04:02.984Z,13.40
2023-04-17T17:06:29.714Z,13.30
2023-04-17T17:08:56.442Z,13.30
2023-04-17T17:11:23.611Z,13.20
2023-04-17T17:13:51.544Z,13.20
2023-04-17T17:16:19.558Z,13.10
2023-04-17T17:18:47.354Z,13.10
2023-04-17T17:21:14.624Z,13.10
2023-04-17T17:23:41.651Z,13.00
2023-04-17T17:26:08.498Z,13.00
2023-04-17T17:28:35.248Z,12.90
2023-04-17T17:31:03.093Z,13.00
2023-04-17T17:33:32.022Z,12.90
2023-04-17T17:35:59.201Z,12.80
2023-04-17T17:38:28.552Z,12.80
2023-04-17T17:40:56.085Z,12.60
2023-04-17T17:43:22.945Z,12.60
2023-04-17T17:45:49.943Z,12.50
2023-04-17T17:48:18.172Z,12.50
2023-04-17T17:50:45.172Z,12.50
2023-04-17T17:53:12.856Z,12.40
2023-04-17T17:55:39.541Z,12.40
2023-04-17T17:58:07.496Z,12.30
2023-04-17T18:00:34.586Z,12.20
2023-04-17T18:03:01.952Z,12.10
2023-04-17T18:05:28.914Z,12.10
2023-04-17T18:07:55.743Z,12.20
2023-04-17T18:10:22.554Z,12.10
2023-04-17T18:12:49.823Z,12.00
2023-04-17T18:15:16.629Z,12.00
2023-04-17T18:17:43.334Z,12.00
2023-04-17T18:20:10.491Z,11.90
2023-04-17T18:22:38.287Z,11.70
2023-04-17T18:25:08.455Z,11.70
2023-04-17T18:27:38.069Z,11.70
2023-04-17T18:30:09.247Z,11.70
2023-04-17T18:32:36.360Z,11.80
2023-04-17T18:35:04.155Z,11.80
2023-04-17T18:37:30.933Z,11.80
2023-04-17T18:39:57.577Z,11.80
2023-04-17T18:42:24.436Z,11.70
2023-04-17T18:44:51.096Z,11.70
2023-04-17T18:47:17.768Z,11.50
2023-04-17T18:49:44.419Z,11.40
2023-04-17T18:52:11.114Z,11.20
2023-04-17T18:54:37.701Z,11.20
2023-04-17T18:57:04.285Z,11.20
2023-04-17T18:59:31.008Z,11.10
2023-04-17T19:01:57.727Z,11.10
2023-04-17T19:04:24.513Z,11.00
2023-04-17T19:06:51.379Z,11.00
2023-04-17T19:09:18.071Z,11.00
2023-04-17T19:11:44.774Z,10.90
2023-04-17T19:14:11.467Z,10.80
2023-04-17T19:16:38.309Z,10.80
2023-04-17T19:19:05.650Z,10.90
2023-04-17T19:21:32.873Z,10.80
2023-04-17T19:23:59.559Z,10.80
2023-04-17T19:26:26.354Z,10.80
2023-04-17T19:28:52.951Z,10.70
2023-04-17T19:31:19.588Z,10.70
2023-04-17T19:33:46.341Z,10.50
2023-04-17T19:36:12.982Z,10.60
2023-04-17T19:38:39.614Z,10.50
2023-04-17T19:41:14.823Z,10.50
2023-04-17T19:43:42.435Z,10.60
2023-04-17T19:46:09.297Z,10.60
2023-04-17T19:48:36.604Z,10.60
2023-04-17T19:51:06.232Z,10.60
2023-04-17T19:53:36.770Z,10.60
2023-04-17T19:56:08.595Z,10.50
2023-04-17T19:58:35.975Z,10.40
2023-04-17T20:01:02.872Z,10.40
2023-04-17T20:03:30.580Z,10.30
2023-04-17T20:05:57.936Z,10.10
2023-04-17T20:08:25.453Z,10.10
2023-04-17T20:10:52.228Z,10.10
2023-04-17T20:13:18.872Z,10.00
2023-04-17T20:15:45.578Z,9.90
2023-04-17T20:18:12.251Z,9.90
2023-04-17T20:20:39.414Z,9.90
2023-04-17T20:23:06.227Z,10.00
2023-04-17T20:25:32.949Z,9.90
2023-04-17T20:27:59.815Z,10.00
2023-04-17T20:30:26.516Z,9.90
2023-04-17T20:32:53.175Z,9.90
2023-04-17T20:35:23.642Z,9.80
2023-04-17T20:37:51.796Z,9.80
2023-04-17T20:40:19.292Z,9.80
2023-04-17T20:42:46.661Z,9.90
2023-04-17T20:45:13.567Z,9.90
2023-04-17T20:47:55.414Z,9.80
2023-04-17T20:50:24.042Z,9.80
2023-04-17T20:52:50.861Z,9.80
2023-04-17T20:55:19.571Z,9.80
2023-04-17T20:57:46.321Z,9.70
2023-04-17T21:00:13.393Z,9.80
2023-04-17T21:02:40.335Z,9.80
2023-04-17T21:05:08.300Z,9.80
2023-04-17T21:07:35.361Z,9.80
2023-04-17T21:10:02.148Z,9.80
2023-04-17T21:12:28.835Z,9.80
2023-04-17T21:14:55.436Z,9.80
2023-04-17T21:17:22.245Z,9.70
2023-04-17T21:19:49.340Z,9.70
2023-04-17T21:22:16.094Z,9.80
2023-04-17T21:24:42.770Z,9.80
2023-04-17T21:27:10.222Z,9.70
2023-04-17T21:29:36.932Z,9.80
2023-04-17T21:32:03.702Z,9.70
2023-04-17T21:34:30.521Z,9.70
2023-04-17T21:36:59.594Z,9.50
2023-04-17T21:39:26.209Z,9.60
2023-04-17T21:41:52.879Z,9.60
2023-04-17T21:44:19.475Z,9.70
2023-04-17T21:46:46.268Z,9.70
2023-04-17T21:49:13.024Z,9.70
2023-04-17T21:51:39.770Z,9.70
2023-04-17T21:54:07.712Z,9.70
2023-04-17T21:56:34.377Z,9.70
2023-04-17T21:59:01.185Z,9.70
2023-04-17T22:01:28.364Z,9.70
2023-04-17T22:03:55.162Z,9.60
2023-04-17T22:06:21.908Z,9.70
2023-04-17T22:08:48.569Z,9.50
2023-04-17T22:11:15.137Z,9.50
2023-04-17T22:13:41.690Z,9.50
2023-04-17T22:16:08.398Z,9.40
2023-04-17T22:18:35.045Z,9.40
2023-04-17T22:21:01.668Z,9.40
2023-04-17T22:23:28.296Z,9.40
2023-04-17T22:25:54.872Z,9.40
2023-04-17T22:28:21.442Z,9.30
2023-04-17T22:30:53.952Z,9.30
2023-04-17T22:33:20.582Z,9.30
2023-04-17T22:35:47.943Z,9.30
2023-04-17T22:38:14.612Z,9.30
2023-04-17T22:40:42.454Z,9.30
2023-04-17T22:43:09.139Z,9.20
2023-04-17T22:45:35.732Z,9.20
2023-04-17T22:48:02.466Z,9.20
2023-04-17T22:50:30.455Z,9.20
2023-04-17T22:52:57.226Z,9.20
2023-04-17T22:55:24.029Z,9.20
2023-04-17T22:57:50.732Z,9.10
2023-04-17T23:00:19.872Z,9.10
2023-04-17T23:02:47.292Z,9.20
2023-04-17T23:05:14.281Z,9.20
2023-04-17T23:07:41.213Z,9.20
2023-04-17T23:10:08.348Z,9.20
2023-04-17T23:12:34.986Z,9.20
2023-04-17T23:15:01.693Z,9.20
2023-04-17T23:17:28.443Z,9.10
2023-04-17T23:19:55.565Z,9.10
2023-04-17T23:22:22.292Z,9.20
2023-04-17T23:24:48.913Z,9.10
2023-04-17T23:27:15.748Z,9.10
2023-04-17T23:29:42.349Z,9.10
2023-04-17T23:32:09.075Z,9.10
2023-04-17T23:34:35.932Z,9.10
2023-04-17T23:37:03.246Z,9.10
2023-04-17T23:39:29.932Z,9.20
2023-04-17T23:41:57.496Z,9.20
2023-04-17T23:44:24.116Z,9.20
2023-04-17T23:46:51.289Z,9.20
2023-04-17T23:49:18.038Z,9.20
2023-04-17T23:51:44.825Z,9.20
2023-04-17T23:54:11.738Z,9.20
2023-04-17T23:56:38.766Z,9.20
2023-04-17T23:59:05.461Z,9.20
